sensor_id;sensor_type;location;lat;lon;timestamp;noise_LAeq;noise_LA_min;noise_LA_max;noise_LA01;noise_LA95
71028;Laerm;61353;52.260;4.572;2022-12-10T00:00:02;31.20;29.28;33.32;;
71028;Laerm;61353;52.260;4.572;2022-12-10T00:00:14;31.43;29.52;34.47;;
71028;Laerm;61353;52.260;4.572;2022-12-10T00:00:24;32.07;29.99;34.64;;
71028;Laerm;61353;52.260;4.572;2022-12-10T00:00:34;30.68;29.05;33.05;;
71028;Laerm;61353;52.260;4.572;2022-12-10T00:00:47;30.97;29.03;42.97;;
71028;Laerm;61353;52.260;4.572;2022-12-10T00:01:04;30.49;29.33;31.83;;
71028;Laerm;61353;52.260;4.572;2022-12-10T00:01:17;32.19;29.45;38.61;;
71028;Laerm;61353;52.260;4.572;2022-12-10T00:01:30;55.21;32.23;64.49;;
71028;Laerm;61353;52.260;4.572;2022-12-10T00:01:42;53.62;40.83;59.97;;
71028;Laerm;61353;52.260;4.572;2022-12-10T00:01:53;39.13;29.73;46.79;;
71028;Laerm;61353;52.260;4.572;2022-12-10T00:02:03;31.18;29.62;33.03;;
71028;Laerm;61353;52.260;4.572;2022-12-10T00:02:13;30.27;28.90;31.94;;
71028;Laerm;61353;52.260;4.572;2022-12-10T00:02:23;29.95;28.42;31.16;;
71028;Laerm;61353;52.260;4.572;2022-12-10T00:02:34;29.83;28.12;30.90;;
71028;Laerm;61353;52.260;4.572;2022-12-10T00:02:44;29.95;28.23;32.70;;
71028;Laerm;61353;52.260;4.572;2022-12-10T00:02:54;30.46;28.68;33.29;;
71028;Laerm;61353;52.260;4.572;2022-12-10T00:03:06;30.85;28.96;34.00;;
71028;Laerm;61353;52.260;4.572;2022-12-10T00:03:18;30.39;28.77;32.94;;
71028;Laerm;61353;52.260;4.572;2022-12-10T00:03:28;30.17;28.79;31.39;;
71028;Laerm;61353;52.260;4.572;2022-12-10T00:03:39;30.03;28.74;31.43;;
71028;Laerm;61353;52.260;4.572;2022-12-10T00:03:49;29.87;28.75;31.22;;
71028;Laerm;61353;52.260;4.572;2022-12-10T00:04:00;29.83;28.38;31.23;;
71028;Laerm;61353;52.260;4.572;2022-12-10T00:04:10;29.72;28.21;30.85;;
71028;Laerm;61353;52.260;4.572;2022-12-10T00:04:21;29.46;28.43;30.77;;
71028;Laerm;61353;52.260;4.572;2022-12-10T00:04:31;29.47;28.08;30.71;;
71028;Laerm;61353;52.260;4.572;2022-12-10T00:04:41;29.62;28.59;30.66;;
71028;Laerm;61353;52.260;4.572;2022-12-10T00:04:52;29.65;28.56;30.84;;
71028;Laerm;61353;52.260;4.572;2022-12-10T00:05:04;29.91;28.47;35.24;;
71028;Laerm;61353;52.260;4.572;2022-12-10T00:05:14;29.58;28.43;30.56;;
71028;Laerm;61353;52.260;4.572;2022-12-10T00:05:25;29.56;28.15;30.79;;
71028;Laerm;61353;52.260;4.572;2022-12-10T00:05:37;30.08;28.52;31.38;;
71028;Laerm;61353;52.260;4.572;2022-12-10T00:05:50;29.85;28.46;31.21;;
71028;Laerm;61353;52.260;4.572;2022-12-10T00:06:01;30.25;28.71;32.70;;
71028;Laerm;61353;52.260;4.572;2022-12-10T00:06:12;29.98;28.84;31.86;;
71028;Laerm;61353;52.260;4.572;2022-12-10T00:06:24;30.77;28.79;33.68;;
71028;Laerm;61353;52.260;4.572;2022-12-10T00:06:35;30.28;28.81;34.51;;
71028;Laerm;61353;52.260;4.572;2022-12-10T00:06:46;32.06;28.76;39.11;;
71028;Laerm;61353;52.260;4.572;2022-12-10T00:06:59;30.39;28.49;34.75;;
71028;Laerm;61353;52.260;4.572;2022-12-10T00:07:09;31.02;28.53;38.30;;
71028;Laerm;61353;52.260;4.572;2022-12-10T00:07:20;30.44;28.40;35.79;;
71028;Laerm;61353;52.260;4.572;2022-12-10T00:07:32;29.91;28.57;31.45;;
71028;Laerm;61353;52.260;4.572;2022-12-10T00:07:42;31.24;28.90;34.73;;
71028;Laerm;61353;52.260;4.572;2022-12-10T00:07:53;42.75;31.92;48.33;;
71028;Laerm;61353;52.260;4.572;2022-12-10T00:08:03;50.07;38.31;55.89;;
71028;Laerm;61353;52.260;4.572;2022-12-10T00:08:13;45.20;36.40;50.46;;
71028;Laerm;61353;52.260;4.572;2022-12-10T00:08:24;36.56;29.98;39.78;;
71028;Laerm;61353;52.260;4.572;2022-12-10T00:08:34;31.07;29.03;34.17;;
71028;Laerm;61353;52.260;4.572;2022-12-10T00:08:44;30.61;28.92;33.39;;
71028;Laerm;61353;52.260;4.572;2022-12-10T00:08:54;31.93;29.41;37.29;;
71028;Laerm;61353;52.260;4.572;2022-12-10T00:09:06;34.26;29.71;39.81;;
71028;Laerm;61353;52.260;4.572;2022-12-10T00:09:17;37.88;32.03;44.64;;
71028;Laerm;61353;52.260;4.572;2022-12-10T00:09:28;40.74;32.72;45.84;;
71028;Laerm;61353;52.260;4.572;2022-12-10T00:09:38;45.72;39.42;51.71;;
71028;Laerm;61353;52.260;4.572;2022-12-10T00:09:49;43.03;37.34;48.66;;
71028;Laerm;61353;52.260;4.572;2022-12-10T00:10:01;40.43;34.97;47.18;;
71028;Laerm;61353;52.260;4.572;2022-12-10T00:10:11;38.66;34.66;43.07;;
71028;Laerm;61353;52.260;4.572;2022-12-10T00:10:22;38.50;34.96;46.13;;
71028;Laerm;61353;52.260;4.572;2022-12-10T00:10:32;37.40;33.15;41.75;;
71028;Laerm;61353;52.260;4.572;2022-12-10T00:10:42;36.00;32.72;39.75;;
71028;Laerm;61353;52.260;4.572;2022-12-10T00:10:52;35.52;30.66;40.64;;
71028;Laerm;61353;52.260;4.572;2022-12-10T00:11:03;34.54;30.51;40.61;;
71028;Laerm;61353;52.260;4.572;2022-12-10T00:11:15;32.98;29.91;37.75;;
71028;Laerm;61353;52.260;4.572;2022-12-10T00:11:28;31.45;29.09;34.35;;
71028;Laerm;61353;52.260;4.572;2022-12-10T00:11:38;32.30;29.20;36.54;;
71028;Laerm;61353;52.260;4.572;2022-12-10T00:11:49;37.28;31.02;41.90;;
71028;Laerm;61353;52.260;4.572;2022-12-10T00:11:59;39.87;30.19;43.69;;
71028;Laerm;61353;52.260;4.572;2022-12-10T00:12:12;46.90;40.84;51.47;;
71028;Laerm;61353;52.260;4.572;2022-12-10T00:12:22;43.11;37.34;47.98;;
71028;Laerm;61353;52.260;4.572;2022-12-10T00:12:32;42.11;35.66;46.46;;
71028;Laerm;61353;52.260;4.572;2022-12-10T00:12:42;42.10;35.00;48.00;;
71028;Laerm;61353;52.260;4.572;2022-12-10T00:12:53;46.53;40.38;52.56;;
71028;Laerm;61353;52.260;4.572;2022-12-10T00:13:05;54.03;32.67;61.88;;
71028;Laerm;61353;52.260;4.572;2022-12-10T00:13:15;44.81;31.06;60.39;;
71028;Laerm;61353;52.260;4.572;2022-12-10T00:13:26;50.09;34.57;67.42;;
71028;Laerm;61353;52.260;4.572;2022-12-10T00:13:36;54.66;38.59;70.82;;
71028;Laerm;61353;52.260;4.572;2022-12-10T00:13:50;54.25;36.81;72.27;;
71028;Laerm;61353;52.260;4.572;2022-12-10T00:14:01;58.41;37.80;73.24;;
71028;Laerm;61353;52.260;4.572;2022-12-10T00:14:13;53.14;39.51;59.77;;
71028;Laerm;61353;52.260;4.572;2022-12-10T00:14:24;37.37;31.54;44.19;;
71028;Laerm;61353;52.260;4.572;2022-12-10T00:14:34;43.39;33.12;51.97;;
71028;Laerm;61353;52.260;4.572;2022-12-10T00:14:44;48.21;42.15;54.34;;
71028;Laerm;61353;52.260;4.572;2022-12-10T00:14:55;49.03;40.28;55.85;;
71028;Laerm;61353;52.260;4.572;2022-12-10T00:15:05;45.29;40.69;52.49;;
71028;Laerm;61353;52.260;4.572;2022-12-10T00:15:15;42.15;35.86;46.32;;
71028;Laerm;61353;52.260;4.572;2022-12-10T00:15:28;39.76;34.27;45.14;;
71028;Laerm;61353;52.260;4.572;2022-12-10T00:15:39;50.94;35.15;59.54;;
71028;Laerm;61353;52.260;4.572;2022-12-10T00:15:49;53.30;41.81;59.44;;
71028;Laerm;61353;52.260;4.572;2022-12-10T00:16:00;49.52;45.60;52.74;;
71028;Laerm;61353;52.260;4.572;2022-12-10T00:16:12;53.97;44.34;60.66;;
71028;Laerm;61353;52.260;4.572;2022-12-10T00:16:23;53.77;43.91;60.06;;
71028;Laerm;61353;52.260;4.572;2022-12-10T00:16:34;37.61;30.02;45.91;;
71028;Laerm;61353;52.260;4.572;2022-12-10T00:16:45;30.39;29.01;32.11;;
71028;Laerm;61353;52.260;4.572;2022-12-10T00:16:55;30.17;28.69;33.95;;
71028;Laerm;61353;52.260;4.572;2022-12-10T00:17:05;30.10;28.43;32.10;;
71028;Laerm;61353;52.260;4.572;2022-12-10T00:17:16;32.89;28.21;52.60;;
71028;Laerm;61353;52.260;4.572;2022-12-10T00:17:26;32.87;29.98;37.24;;
71028;Laerm;61353;52.260;4.572;2022-12-10T00:17:36;31.13;29.18;33.43;;
71028;Laerm;61353;52.260;4.572;2022-12-10T00:17:46;47.10;31.51;56.88;;
71028;Laerm;61353;52.260;4.572;2022-12-10T00:17:57;51.57;39.13;63.91;;
71028;Laerm;61353;52.260;4.572;2022-12-10T00:18:07;49.02;45.15;53.25;;
71028;Laerm;61353;52.260;4.572;2022-12-10T00:18:20;51.36;40.07;57.21;;
71028;Laerm;61353;52.260;4.572;2022-12-10T00:18:30;41.28;36.17;46.96;;
71028;Laerm;61353;52.260;4.572;2022-12-10T00:18:43;32.73;28.81;38.80;;
71028;Laerm;61353;52.260;4.572;2022-12-10T00:18:53;29.85;28.64;31.23;;
71028;Laerm;61353;52.260;4.572;2022-12-10T00:19:06;29.47;28.39;31.54;;
71028;Laerm;61353;52.260;4.572;2022-12-10T00:19:16;29.40;28.43;30.51;;
71028;Laerm;61353;52.260;4.572;2022-12-10T00:19:26;29.68;28.57;31.46;;
71028;Laerm;61353;52.260;4.572;2022-12-10T00:19:37;29.92;28.77;34.20;;
71028;Laerm;61353;52.260;4.572;2022-12-10T00:19:47;29.58;28.54;30.71;;
71028;Laerm;61353;52.260;4.572;2022-12-10T00:19:57;29.51;28.14;30.71;;
71028;Laerm;61353;52.260;4.572;2022-12-10T00:20:10;29.56;28.34;31.02;;
71028;Laerm;61353;52.260;4.572;2022-12-10T00:20:20;29.45;28.22;30.58;;
71028;Laerm;61353;52.260;4.572;2022-12-10T00:20:35;29.47;28.35;30.54;;
71028;Laerm;61353;52.260;4.572;2022-12-10T00:20:45;29.63;28.42;30.89;;
71028;Laerm;61353;52.260;4.572;2022-12-10T00:20:56;29.75;28.54;31.05;;
71028;Laerm;61353;52.260;4.572;2022-12-10T00:21:07;30.05;28.15;31.74;;
71028;Laerm;61353;52.260;4.572;2022-12-10T00:21:19;29.83;28.47;32.78;;
71028;Laerm;61353;52.260;4.572;2022-12-10T00:21:30;29.61;28.48;30.78;;
71028;Laerm;61353;52.260;4.572;2022-12-10T00:21:41;29.72;28.67;30.85;;
71028;Laerm;61353;52.260;4.572;2022-12-10T00:21:53;29.67;28.55;30.87;;
71028;Laerm;61353;52.260;4.572;2022-12-10T00:22:03;29.89;28.62;32.27;;
71028;Laerm;61353;52.260;4.572;2022-12-10T00:22:13;31.85;28.60;35.87;;
71028;Laerm;61353;52.260;4.572;2022-12-10T00:22:26;32.74;30.10;35.06;;
71028;Laerm;61353;52.260;4.572;2022-12-10T00:22:41;49.23;33.32;57.27;;
71028;Laerm;61353;52.260;4.572;2022-12-10T00:22:51;56.19;46.77;62.66;;
71028;Laerm;61353;52.260;4.572;2022-12-10T00:23:01;42.27;35.28;48.33;;
71028;Laerm;61353;52.260;4.572;2022-12-10T00:23:14;34.14;30.00;38.71;;
71028;Laerm;61353;52.260;4.572;2022-12-10T00:23:24;30.06;28.41;31.57;;
71028;Laerm;61353;52.260;4.572;2022-12-10T00:23:35;29.95;28.61;30.98;;
71028;Laerm;61353;52.260;4.572;2022-12-10T00:23:46;30.18;28.99;31.69;;
71028;Laerm;61353;52.260;4.572;2022-12-10T00:23:57;31.24;29.37;35.41;;
71028;Laerm;61353;52.260;4.572;2022-12-10T00:24:08;41.20;29.35;46.34;;
71028;Laerm;61353;52.260;4.572;2022-12-10T00:24:21;53.38;39.78;61.50;;
71028;Laerm;61353;52.260;4.572;2022-12-10T00:24:31;44.68;31.46;59.27;;
71028;Laerm;61353;52.260;4.572;2022-12-10T00:24:41;37.11;31.61;41.06;;
71028;Laerm;61353;52.260;4.572;2022-12-10T00:24:52;32.74;30.26;37.15;;
71028;Laerm;61353;52.260;4.572;2022-12-10T00:25:02;55.54;32.93;61.85;;
71028;Laerm;61353;52.260;4.572;2022-12-10T00:25:15;47.01;33.46;61.15;;
71028;Laerm;61353;52.260;4.572;2022-12-10T00:25:25;41.80;36.33;46.53;;
71028;Laerm;61353;52.260;4.572;2022-12-10T00:25:37;42.41;34.77;47.10;;
71028;Laerm;61353;52.260;4.572;2022-12-10T00:25:48;33.91;30.85;38.15;;
71028;Laerm;61353;52.260;4.572;2022-12-10T00:26:21;34.34;29.48;39.62;;
71028;Laerm;61353;52.260;4.572;2022-12-10T00:26:35;31.87;29.21;39.89;;
71028;Laerm;61353;52.260;4.572;2022-12-10T00:26:46;30.76;29.10;34.84;;
71028;Laerm;61353;52.260;4.572;2022-12-10T00:26:56;31.22;29.70;33.66;;
71028;Laerm;61353;52.260;4.572;2022-12-10T00:27:06;42.97;29.38;55.11;;
71028;Laerm;61353;52.260;4.572;2022-12-10T00:27:17;47.99;39.72;55.45;;
71028;Laerm;61353;52.260;4.572;2022-12-10T00:27:30;45.50;32.20;51.55;;
71028;Laerm;61353;52.260;4.572;2022-12-10T00:27:40;32.91;30.32;38.45;;
71028;Laerm;61353;52.260;4.572;2022-12-10T00:27:50;59.35;36.59;70.67;;
71028;Laerm;61353;52.260;4.572;2022-12-10T00:28:00;57.23;41.60;67.46;;
71028;Laerm;61353;52.260;4.572;2022-12-10T00:28:11;42.80;30.13;51.40;;
71028;Laerm;61353;52.260;4.572;2022-12-10T00:28:24;32.22;29.19;34.74;;
71028;Laerm;61353;52.260;4.572;2022-12-10T00:28:35;30.97;29.36;32.89;;
71028;Laerm;61353;52.260;4.572;2022-12-10T00:28:47;30.49;28.98;32.07;;
71028;Laerm;61353;52.260;4.572;2022-12-10T00:28:59;31.59;29.35;36.17;;
71028;Laerm;61353;52.260;4.572;2022-12-10T00:29:10;30.68;28.53;33.65;;
71028;Laerm;61353;52.260;4.572;2022-12-10T00:29:21;30.83;29.21;34.13;;
71028;Laerm;61353;52.260;4.572;2022-12-10T00:29:31;32.34;29.73;41.29;;
71028;Laerm;61353;52.260;4.572;2022-12-10T00:29:41;32.98;29.70;35.99;;
71028;Laerm;61353;52.260;4.572;2022-12-10T00:29:52;37.19;29.84;41.91;;
71028;Laerm;61353;52.260;4.572;2022-12-10T00:30:04;33.06;29.90;37.91;;
71028;Laerm;61353;52.260;4.572;2022-12-10T00:30:15;32.85;28.87;50.99;;
71028;Laerm;61353;52.260;4.572;2022-12-10T00:30:25;30.52;28.59;36.43;;
71028;Laerm;61353;52.260;4.572;2022-12-10T00:30:35;31.28;28.66;43.39;;
71028;Laerm;61353;52.260;4.572;2022-12-10T00:30:45;29.75;28.53;32.54;;
71028;Laerm;61353;52.260;4.572;2022-12-10T00:31:05;30.35;28.65;36.58;;
71028;Laerm;61353;52.260;4.572;2022-12-10T00:31:20;29.89;28.46;33.99;;
71028;Laerm;61353;52.260;4.572;2022-12-10T00:31:31;31.75;29.80;36.90;;
71028;Laerm;61353;52.260;4.572;2022-12-10T00:31:47;38.51;30.15;44.49;;
71028;Laerm;61353;52.260;4.572;2022-12-10T00:31:57;35.65;30.17;50.96;;
71028;Laerm;61353;52.260;4.572;2022-12-10T00:32:07;39.76;30.15;44.43;;
71028;Laerm;61353;52.260;4.572;2022-12-10T00:32:23;50.98;40.09;57.68;;
71028;Laerm;61353;52.260;4.572;2022-12-10T00:32:33;51.44;34.78;61.03;;
71028;Laerm;61353;52.260;4.572;2022-12-10T00:32:46;44.10;32.33;52.56;;
71028;Laerm;61353;52.260;4.572;2022-12-10T00:32:59;42.10;31.88;51.83;;
71028;Laerm;61353;52.260;4.572;2022-12-10T00:33:09;33.39;29.92;39.55;;
71028;Laerm;61353;52.260;4.572;2022-12-10T00:33:19;32.00;28.54;38.62;;
71028;Laerm;61353;52.260;4.572;2022-12-10T00:33:30;30.69;28.95;36.02;;
71028;Laerm;61353;52.260;4.572;2022-12-10T00:33:41;31.37;29.01;39.15;;
71028;Laerm;61353;52.260;4.572;2022-12-10T00:33:55;31.27;29.17;39.63;;
71028;Laerm;61353;52.260;4.572;2022-12-10T00:34:06;29.71;28.00;33.26;;
71028;Laerm;61353;52.260;4.572;2022-12-10T00:34:17;29.79;28.27;34.65;;
71028;Laerm;61353;52.260;4.572;2022-12-10T00:34:27;29.33;27.91;32.42;;
71028;Laerm;61353;52.260;4.572;2022-12-10T00:34:38;29.98;28.30;32.27;;
71028;Laerm;61353;52.260;4.572;2022-12-10T00:34:48;30.69;28.59;36.56;;
71028;Laerm;61353;52.260;4.572;2022-12-10T00:34:58;30.34;28.56;35.77;;
71028;Laerm;61353;52.260;4.572;2022-12-10T00:35:08;29.73;28.21;34.66;;
71028;Laerm;61353;52.260;4.572;2022-12-10T00:35:19;29.55;28.27;30.86;;
71028;Laerm;61353;52.260;4.572;2022-12-10T00:35:29;29.39;28.06;34.83;;
71028;Laerm;61353;52.260;4.572;2022-12-10T00:35:39;29.31;28.33;30.63;;
71028;Laerm;61353;52.260;4.572;2022-12-10T00:35:50;29.46;28.40;30.79;;
71028;Laerm;61353;52.260;4.572;2022-12-10T00:36:09;30.68;28.51;34.30;;
71028;Laerm;61353;52.260;4.572;2022-12-10T00:36:20;37.35;28.60;48.13;;
71028;Laerm;61353;52.260;4.572;2022-12-10T00:36:32;29.95;28.37;42.73;;
71028;Laerm;61353;52.260;4.572;2022-12-10T00:36:44;30.05;28.73;31.18;;
71028;Laerm;61353;52.260;4.572;2022-12-10T00:36:54;29.72;28.67;30.78;;
71028;Laerm;61353;52.260;4.572;2022-12-10T00:37:05;29.76;28.65;30.93;;
71028;Laerm;61353;52.260;4.572;2022-12-10T00:37:15;31.01;29.21;33.26;;
71028;Laerm;61353;52.260;4.572;2022-12-10T00:37:27;36.94;28.94;47.39;;
71028;Laerm;61353;52.260;4.572;2022-12-10T00:37:40;53.42;44.47;59.68;;
71028;Laerm;61353;52.260;4.572;2022-12-10T00:37:50;51.08;31.81;60.12;;
71028;Laerm;61353;52.260;4.572;2022-12-10T00:38:00;31.55;30.01;33.53;;
71028;Laerm;61353;52.260;4.572;2022-12-10T00:38:11;31.19;29.26;33.50;;
71028;Laerm;61353;52.260;4.572;2022-12-10T00:38:23;33.41;29.48;40.14;;
71028;Laerm;61353;52.260;4.572;2022-12-10T00:38:36;56.29;35.92;64.02;;
71028;Laerm;61353;52.260;4.572;2022-12-10T00:38:47;32.12;29.94;36.86;;
71028;Laerm;61353;52.260;4.572;2022-12-10T00:38:57;32.01;30.33;34.10;;
71028;Laerm;61353;52.260;4.572;2022-12-10T00:39:08;32.08;30.47;34.11;;
71028;Laerm;61353;52.260;4.572;2022-12-10T00:39:19;32.55;30.22;35.13;;
71028;Laerm;61353;52.260;4.572;2022-12-10T00:39:30;32.17;29.76;34.11;;
71028;Laerm;61353;52.260;4.572;2022-12-10T00:39:40;32.66;29.43;47.70;;
71028;Laerm;61353;52.260;4.572;2022-12-10T00:39:50;32.24;30.60;34.36;;
71028;Laerm;61353;52.260;4.572;2022-12-10T00:40:01;32.42;30.68;34.47;;
71028;Laerm;61353;52.260;4.572;2022-12-10T00:40:11;36.61;30.15;53.92;;
71028;Laerm;61353;52.260;4.572;2022-12-10T00:40:24;32.53;29.99;38.37;;
71028;Laerm;61353;52.260;4.572;2022-12-10T00:40:34;32.63;30.54;35.01;;
71028;Laerm;61353;52.260;4.572;2022-12-10T00:40:44;33.57;31.02;37.56;;
71028;Laerm;61353;52.260;4.572;2022-12-10T00:40:55;57.49;36.35;65.06;;
71028;Laerm;61353;52.260;4.572;2022-12-10T00:41:05;43.87;30.81;50.99;;
71028;Laerm;61353;52.260;4.572;2022-12-10T00:41:20;31.99;29.92;34.77;;
71028;Laerm;61353;52.260;4.572;2022-12-10T00:41:31;32.83;30.53;35.82;;
71028;Laerm;61353;52.260;4.572;2022-12-10T00:41:42;33.23;30.92;35.39;;
71028;Laerm;61353;52.260;4.572;2022-12-10T00:41:54;33.08;30.64;35.51;;
71028;Laerm;61353;52.260;4.572;2022-12-10T00:42:05;32.45;30.67;34.48;;
71028;Laerm;61353;52.260;4.572;2022-12-10T00:42:17;32.89;30.79;35.19;;
71028;Laerm;61353;52.260;4.572;2022-12-10T00:42:27;33.71;30.83;35.91;;
71028;Laerm;61353;52.260;4.572;2022-12-10T00:42:37;33.53;31.26;36.90;;
71028;Laerm;61353;52.260;4.572;2022-12-10T00:42:48;33.46;31.39;35.29;;
71028;Laerm;61353;52.260;4.572;2022-12-10T00:42:58;33.23;31.10;35.57;;
71028;Laerm;61353;52.260;4.572;2022-12-10T00:43:08;33.24;30.97;36.42;;
71028;Laerm;61353;52.260;4.572;2022-12-10T00:43:18;33.30;31.20;36.35;;
71028;Laerm;61353;52.260;4.572;2022-12-10T00:43:29;33.50;31.24;36.06;;
71028;Laerm;61353;52.260;4.572;2022-12-10T00:43:39;33.01;30.96;35.20;;
71028;Laerm;61353;52.260;4.572;2022-12-10T00:43:50;32.88;30.77;35.56;;
71028;Laerm;61353;52.260;4.572;2022-12-10T00:44:03;32.12;30.18;34.18;;
71028;Laerm;61353;52.260;4.572;2022-12-10T00:44:13;32.08;30.43;34.56;;
71028;Laerm;61353;52.260;4.572;2022-12-10T00:44:26;31.96;30.23;34.05;;
71028;Laerm;61353;52.260;4.572;2022-12-10T00:44:36;31.97;30.11;33.65;;
71028;Laerm;61353;52.260;4.572;2022-12-10T00:44:47;31.96;29.98;33.66;;
71028;Laerm;61353;52.260;4.572;2022-12-10T00:45:02;31.98;30.26;33.97;;
71028;Laerm;61353;52.260;4.572;2022-12-10T00:45:12;32.38;29.87;37.96;;
71028;Laerm;61353;52.260;4.572;2022-12-10T00:45:22;31.35;29.87;35.07;;
71028;Laerm;61353;52.260;4.572;2022-12-10T00:45:33;32.27;30.60;33.85;;
71028;Laerm;61353;52.260;4.572;2022-12-10T00:45:43;31.99;30.03;34.97;;
71028;Laerm;61353;52.260;4.572;2022-12-10T00:45:53;31.37;29.73;36.76;;
71028;Laerm;61353;52.260;4.572;2022-12-10T00:46:04;32.74;29.54;40.50;;
71028;Laerm;61353;52.260;4.572;2022-12-10T00:46:15;32.48;29.38;42.88;;
71028;Laerm;61353;52.260;4.572;2022-12-10T00:46:26;31.08;29.63;32.95;;
71028;Laerm;61353;52.260;4.572;2022-12-10T00:46:39;32.23;30.09;35.12;;
71028;Laerm;61353;52.260;4.572;2022-12-10T00:46:49;32.09;30.11;34.55;;
71028;Laerm;61353;52.260;4.572;2022-12-10T00:47:01;31.37;29.87;33.70;;
71028;Laerm;61353;52.260;4.572;2022-12-10T00:47:12;34.92;30.23;42.99;;
71028;Laerm;61353;52.260;4.572;2022-12-10T00:47:22;30.89;29.15;32.64;;
71028;Laerm;61353;52.260;4.572;2022-12-10T00:47:32;31.30;29.37;37.75;;
71028;Laerm;61353;52.260;4.572;2022-12-10T00:47:43;30.16;28.38;31.73;;
71028;Laerm;61353;52.260;4.572;2022-12-10T00:47:53;30.29;28.64;32.32;;
71028;Laerm;61353;52.260;4.572;2022-12-10T00:48:03;30.56;28.95;31.92;;
71028;Laerm;61353;52.260;4.572;2022-12-10T00:48:13;31.13;29.21;32.64;;
71028;Laerm;61353;52.260;4.572;2022-12-10T00:48:24;48.05;29.81;58.67;;
71028;Laerm;61353;52.260;4.572;2022-12-10T00:48:34;54.85;43.52;62.66;;
71028;Laerm;61353;52.260;4.572;2022-12-10T00:48:45;52.96;44.85;60.99;;
71028;Laerm;61353;52.260;4.572;2022-12-10T00:48:56;43.99;30.09;50.90;;
71028;Laerm;61353;52.260;4.572;2022-12-10T00:49:06;31.36;29.28;33.88;;
71028;Laerm;61353;52.260;4.572;2022-12-10T00:49:16;30.80;29.16;33.01;;
71028;Laerm;61353;52.260;4.572;2022-12-10T00:49:27;30.55;29.27;32.39;;
71028;Laerm;61353;52.260;4.572;2022-12-10T00:49:37;30.87;29.22;33.66;;
71028;Laerm;61353;52.260;4.572;2022-12-10T00:49:47;30.71;29.11;32.57;;
71028;Laerm;61353;52.260;4.572;2022-12-10T00:49:57;30.61;29.00;33.04;;
71028;Laerm;61353;52.260;4.572;2022-12-10T00:50:08;30.41;28.58;32.62;;
71028;Laerm;61353;52.260;4.572;2022-12-10T00:50:18;30.50;29.09;32.72;;
71028;Laerm;61353;52.260;4.572;2022-12-10T00:50:28;30.68;29.15;32.94;;
71028;Laerm;61353;52.260;4.572;2022-12-10T00:50:38;30.67;29.23;32.75;;
71028;Laerm;61353;52.260;4.572;2022-12-10T00:50:59;30.99;29.65;32.66;;
71028;Laerm;61353;52.260;4.572;2022-12-10T00:51:17;31.94;29.59;37.48;;
71028;Laerm;61353;52.260;4.572;2022-12-10T00:51:28;34.52;31.07;37.73;;
71028;Laerm;61353;52.260;4.572;2022-12-10T00:51:41;47.49;35.16;55.45;;
71028;Laerm;61353;52.260;4.572;2022-12-10T00:51:51;44.70;41.08;48.00;;
71028;Laerm;61353;52.260;4.572;2022-12-10T00:52:02;63.28;41.62;70.65;;
71028;Laerm;61353;52.260;4.572;2022-12-10T00:52:12;43.55;33.31;53.31;;
71028;Laerm;61353;52.260;4.572;2022-12-10T00:52:22;38.86;33.33;47.25;;
71028;Laerm;61353;52.260;4.572;2022-12-10T00:52:35;31.83;29.56;34.50;;
71028;Laerm;61353;52.260;4.572;2022-12-10T00:52:46;31.22;29.61;32.81;;
71028;Laerm;61353;52.260;4.572;2022-12-10T00:52:56;30.83;29.41;32.25;;
71028;Laerm;61353;52.260;4.572;2022-12-10T00:53:06;30.77;29.47;33.82;;
71028;Laerm;61353;52.260;4.572;2022-12-10T00:53:17;30.78;29.11;33.67;;
71028;Laerm;61353;52.260;4.572;2022-12-10T00:53:28;30.54;29.27;32.04;;
71028;Laerm;61353;52.260;4.572;2022-12-10T00:53:39;30.93;29.51;32.48;;
71028;Laerm;61353;52.260;4.572;2022-12-10T00:53:51;31.12;29.80;32.62;;
71028;Laerm;61353;52.260;4.572;2022-12-10T00:54:04;31.00;29.53;32.87;;
71028;Laerm;61353;52.260;4.572;2022-12-10T00:54:15;33.50;30.15;37.50;;
71028;Laerm;61353;52.260;4.572;2022-12-10T00:54:25;63.47;31.51;72.47;;
71028;Laerm;61353;52.260;4.572;2022-12-10T00:54:38;41.50;29.77;52.50;;
71028;Laerm;61353;52.260;4.572;2022-12-10T00:54:48;31.91;30.03;36.37;;
71028;Laerm;61353;52.260;4.572;2022-12-10T00:54:58;31.05;29.12;33.00;;
71028;Laerm;61353;52.260;4.572;2022-12-10T00:55:09;31.08;29.38;37.64;;
71028;Laerm;61353;52.260;4.572;2022-12-10T00:55:19;30.59;29.33;32.00;;
71028;Laerm;61353;52.260;4.572;2022-12-10T00:55:29;31.03;28.90;34.58;;
71028;Laerm;61353;52.260;4.572;2022-12-10T00:55:39;31.40;29.61;36.37;;
71028;Laerm;61353;52.260;4.572;2022-12-10T00:55:52;31.14;29.46;33.80;;
71028;Laerm;61353;52.260;4.572;2022-12-10T00:56:03;31.19;29.47;33.36;;
71028;Laerm;61353;52.260;4.572;2022-12-10T00:56:16;31.70;30.03;35.25;;
71028;Laerm;61353;52.260;4.572;2022-12-10T00:56:28;31.77;29.85;36.65;;
71028;Laerm;61353;52.260;4.572;2022-12-10T00:56:39;31.29;29.59;33.01;;
71028;Laerm;61353;52.260;4.572;2022-12-10T00:56:50;31.27;29.39;32.95;;
71028;Laerm;61353;52.260;4.572;2022-12-10T00:57:00;39.45;30.31;47.78;;
71028;Laerm;61353;52.260;4.572;2022-12-10T00:57:10;52.88;41.19;58.19;;
71028;Laerm;61353;52.260;4.572;2022-12-10T00:57:20;47.93;38.40;55.51;;
71028;Laerm;61353;52.260;4.572;2022-12-10T00:57:31;39.74;30.94;44.23;;
71028;Laerm;61353;52.260;4.572;2022-12-10T00:57:41;32.60;30.16;34.99;;
71028;Laerm;61353;52.260;4.572;2022-12-10T00:57:53;33.22;30.66;36.78;;
71028;Laerm;61353;52.260;4.572;2022-12-10T00:58:06;32.82;30.66;35.89;;
71028;Laerm;61353;52.260;4.572;2022-12-10T00:58:16;31.82;29.87;33.86;;
71028;Laerm;61353;52.260;4.572;2022-12-10T00:58:28;32.44;30.30;34.98;;
71028;Laerm;61353;52.260;4.572;2022-12-10T00:58:40;32.53;30.16;34.92;;
71028;Laerm;61353;52.260;4.572;2022-12-10T00:58:51;37.34;30.62;41.51;;
71028;Laerm;61353;52.260;4.572;2022-12-10T00:59:04;45.94;36.81;51.18;;
71028;Laerm;61353;52.260;4.572;2022-12-10T00:59:16;50.79;37.97;56.88;;
71028;Laerm;61353;52.260;4.572;2022-12-10T00:59:27;49.53;35.79;58.92;;
71028;Laerm;61353;52.260;4.572;2022-12-10T00:59:37;38.88;32.38;47.23;;
71028;Laerm;61353;52.260;4.572;2022-12-10T00:59:47;33.56;30.66;37.58;;
71028;Laerm;61353;52.260;4.572;2022-12-10T00:59:57;32.78;30.95;34.87;;
71028;Laerm;61353;52.260;4.572;2022-12-10T01:00:08;33.49;30.02;37.81;;
71028;Laerm;61353;52.260;4.572;2022-12-10T01:00:18;31.78;29.57;34.61;;
71028;Laerm;61353;52.260;4.572;2022-12-10T01:00:31;31.88;29.32;36.66;;
71028;Laerm;61353;52.260;4.572;2022-12-10T01:00:41;33.93;30.71;39.45;;
71028;Laerm;61353;52.260;4.572;2022-12-10T01:00:51;38.18;30.52;48.86;;
71028;Laerm;61353;52.260;4.572;2022-12-10T01:01:12;51.41;41.88;58.84;;
71028;Laerm;61353;52.260;4.572;2022-12-10T01:01:24;50.92;40.15;58.75;;
71028;Laerm;61353;52.260;4.572;2022-12-10T01:01:36;44.53;33.40;51.11;;
71028;Laerm;61353;52.260;4.572;2022-12-10T01:01:46;53.49;33.10;63.53;;
71028;Laerm;61353;52.260;4.572;2022-12-10T01:01:57;56.28;46.54;63.58;;
71028;Laerm;61353;52.260;4.572;2022-12-10T01:02:07;41.31;33.32;50.16;;
71028;Laerm;61353;52.260;4.572;2022-12-10T01:02:17;50.97;37.75;62.30;;
71028;Laerm;61353;52.260;4.572;2022-12-10T01:02:27;59.85;55.04;63.21;;
71028;Laerm;61353;52.260;4.572;2022-12-10T01:02:38;52.95;48.56;58.05;;